Time;durP1;ratioP1;P1;durP2;ratioP2;P2;SDS_P1;SDS_P2;PMS_P1;PMS_P2;Temp;Humidity;BMP_temperature;BMP_pressure;BME280_temperature;BME280_humidity;BME280_pressure;Samples;Min_cycle;Max_cycle;Signal;HPM_P1;HPM_P2
2023/09/10 00:00:42;;;;;;;;;;;21.80;92.40;;;;;;5008374;28;19993;-71
2023/09/10 00:03:08;;;;;;;;;;;21.80;92.50;;;;;;5008136;28;19920;-71
2023/09/10 00:05:33;;;;;;;;;;;21.80;92.50;;;;;;5008474;28;20013;-71
2023/09/10 00:08:00;;;;;;;;;;;21.70;92.50;;;;;;5007505;28;19920;-71
2023/09/10 00:10:26;;;;;;;;;;;21.70;92.60;;;;;;5008792;28;19917;-71
2023/09/10 00:12:52;;;;;;;;;;;21.70;92.60;;;;;;5009275;28;20345;-72
2023/09/10 00:15:17;;;;;;;;;;;21.70;92.50;;;;;;5007927;28;19913;-71
2023/09/10 00:17:43;;;;;;;;;;;21.70;92.60;;;;;;5008934;28;19917;-71
2023/09/10 00:20:10;;;;;;;;;;;21.70;92.60;;;;;;5009251;28;19921;-71
2023/09/10 00:22:37;;;;;;;;;;;21.70;92.80;;;;;;5009077;28;19917;-71
2023/09/10 00:25:04;;;;;;;;;;;21.60;92.60;;;;;;5009320;28;20307;-71
2023/09/10 00:27:29;;;;;;;;;;;21.60;92.90;;;;;;5009569;28;19913;-71
2023/09/10 00:29:55;;;;;;;;;;;21.60;92.80;;;;;;5009407;28;19910;-71
2023/09/10 00:32:21;;;;;;;;;;;21.50;92.90;;;;;;5007446;28;19952;-71
2023/09/10 00:34:47;;;;;;;;;;;21.50;92.90;;;;;;5009457;28;19913;-71
2023/09/10 00:37:16;;;;;;;;;;;21.50;92.80;;;;;;5007990;28;19913;-71
2023/09/10 00:39:42;;;;;;;;;;;21.50;93.00;;;;;;5009188;28;19914;-71
2023/09/10 00:42:09;;;;;;;;;;;21.40;92.90;;;;;;5008495;28;19909;-72
2023/09/10 00:44:35;;;;;;;;;;;21.40;92.90;;;;;;5009271;28;19913;-71
2023/09/10 00:47:01;;;;;;;;;;;21.40;93.00;;;;;;5009483;28;19909;-72
2023/09/10 00:49:27;;;;;;;;;;;21.40;93.10;;;;;;5001058;28;19983;-71
2023/09/10 00:51:53;;;;;;;;;;;21.40;93.10;;;;;;5008838;28;19964;-71
2023/09/10 00:54:18;;;;;;;;;;;21.40;93.10;;;;;;5003654;28;19949;-71
2023/09/10 00:56:44;;;;;;;;;;;21.30;93.20;;;;;;5007473;28;19917;-71
2023/09/10 00:59:09;;;;;;;;;;;21.30;93.20;;;;;;5001095;28;19920;-71
2023/09/10 01:01:35;;;;;;;;;;;21.30;93.20;;;;;;5008432;28;19921;-71
2023/09/10 01:04:01;;;;;;;;;;;21.30;93.40;;;;;;5001126;28;19968;-71
2023/09/10 01:06:27;;;;;;;;;;;21.20;93.70;;;;;;5008370;28;20470;-71
2023/09/10 01:08:52;;;;;;;;;;;21.20;93.30;;;;;;5002025;28;19914;-71
2023/09/10 01:11:20;;;;;;;;;;;21.20;93.30;;;;;;5007302;28;20370;-71
2023/09/10 01:13:49;;;;;;;;;;;21.20;93.30;;;;;;5002936;28;20728;-71
2023/09/10 01:16:37;;;;;;;;;;;21.20;93.60;;;;;;5007161;28;19936;-71
2023/09/10 01:19:23;;;;;;;;;;;21.10;93.40;;;;;;5000659;28;20017;-71
2023/09/10 01:21:49;;;;;;;;;;;21.10;93.50;;;;;;5004944;28;19932;-71
2023/09/10 01:24:24;;;;;;;;;;;21.10;93.50;;;;;;5000706;28;20318;-71
2023/09/10 01:26:54;;;;;;;;;;;21.10;93.50;;;;;;5008358;28;20364;-71
2023/09/10 01:29:19;;;;;;;;;;;21.10;93.60;;;;;;5000613;28;19914;-71
2023/09/10 01:31:48;;;;;;;;;;;21.00;93.50;;;;;;5007864;28;19920;-71
2023/09/10 01:34:15;;;;;;;;;;;21.00;93.70;;;;;;5000977;28;19921;-71
2023/09/10 01:36:47;;;;;;;;;;;21.00;93.70;;;;;;5008339;28;19910;-71
2023/09/10 01:39:30;;;;;;;;;;;21.00;93.70;;;;;;4999623;28;19976;-72
2023/09/10 01:41:56;;;;;;;;;;;21.00;93.70;;;;;;5007978;28;20354;-71
2023/09/10 01:44:23;;;;;;;;;;;21.00;93.60;;;;;;5004232;28;20680;-71
2023/09/10 01:46:50;;;;;;;;;;;20.90;93.70;;;;;;5008249;28;19913;-71
2023/09/10 01:49:16;;;;;;;;;;;20.90;93.70;;;;;;5005329;28;19917;-71
2023/09/10 01:51:42;;;;;;;;;;;20.90;93.70;;;;;;5007787;28;19924;-72
2023/09/10 01:54:07;;;;;;;;;;;20.90;93.70;;;;;;5004195;28;19914;-71
2023/09/10 01:56:33;;;;;;;;;;;20.80;93.90;;;;;;5008080;28;19971;-71
2023/09/10 01:58:58;;;;;;;;;;;20.80;93.80;;;;;;5005167;28;19925;-72
2023/09/10 02:01:24;;;;;;;;;;;20.80;93.80;;;;;;5006982;28;19914;-71
2023/09/10 02:03:49;;;;;;;;;;;20.80;93.80;;;;;;5005228;28;19952;-71
2023/09/10 02:06:15;;;;;;;;;;;20.80;93.80;;;;;;5007157;28;19909;-71
2023/09/10 02:08:40;;;;;;;;;;;20.80;93.90;;;;;;5005280;28;20029;-71
2023/09/10 02:11:06;;;;;;;;;;;20.70;93.90;;;;;;5004772;28;19917;-71
2023/09/10 02:13:31;;;;;;;;;;;20.70;93.90;;;;;;5003339;28;19920;-71
2023/09/10 02:15:57;;;;;;;;;;;20.70;93.80;;;;;;5004091;28;19917;-71
2023/09/10 02:18:22;;;;;;;;;;;20.70;93.80;;;;;;5004127;28;19925;-72
2023/09/10 02:20:48;;;;;;;;;;;20.70;93.80;;;;;;5014436;28;19920;-71
2023/09/10 02:23:14;;;;;;;;;;;20.70;93.90;;;;;;5004541;28;19913;-71
2023/09/10 02:25:39;;;;;;;;;;;20.60;93.90;;;;;;5013575;28;19957;-72
2023/09/10 02:28:05;;;;;;;;;;;20.60;93.90;;;;;;5003642;28;19917;-71
2023/09/10 02:30:30;;;;;;;;;;;20.60;94.00;;;;;;5001011;28;19957;-71
2023/09/10 02:32:56;;;;;;;;;;;20.50;94.00;;;;;;5007369;28;19991;-71
2023/09/10 02:35:21;;;;;;;;;;;20.60;94.10;;;;;;5002231;28;20457;-72
2023/09/10 02:37:47;;;;;;;;;;;20.50;94.10;;;;;;5006667;28;19914;-71
2023/09/10 02:40:12;;;;;;;;;;;20.50;94.00;;;;;;5004337;28;19995;-71
2023/09/10 02:42:39;;;;;;;;;;;20.50;94.10;;;;;;5010931;28;19914;-71
2023/09/10 02:45:05;;;;;;;;;;;20.50;94.10;;;;;;5008983;28;19917;-71
2023/09/10 02:47:31;;;;;;;;;;;20.50;94.10;;;;;;5010579;28;19920;-71
2023/09/10 02:49:57;;;;;;;;;;;20.50;94.10;;;;;;5012736;28;19918;-71
2023/09/10 02:52:24;;;;;;;;;;;20.40;94.10;;;;;;5010336;28;20016;-71
2023/09/10 02:54:50;;;;;;;;;;;20.40;94.10;;;;;;5005989;28;20015;-71
2023/09/10 02:57:16;;;;;;;;;;;20.40;94.20;;;;;;5010782;28;19917;-71
2023/09/10 02:59:41;;;;;;;;;;;20.40;94.10;;;;;;5012813;28;19914;-71
2023/09/10 03:02:07;;;;;;;;;;;20.40;94.10;;;;;;5010238;28;20358;-71
2023/09/10 03:04:32;;;;;;;;;;;20.40;94.40;;;;;;5005859;28;19917;-71
2023/09/10 03:07:01;;;;;;;;;;;20.30;94.10;;;;;;5010862;28;19948;-71
2023/09/10 03:09:26;;;;;;;;;;;20.30;94.20;;;;;;5011563;28;19933;-71
2023/09/10 03:11:52;;;;;;;;;;;20.30;94.20;;;;;;5010396;28;20004;-72
2023/09/10 03:14:17;;;;;;;;;;;20.30;94.20;;;;;;5008284;28;19914;-71
2023/09/10 03:16:43;;;;;;;;;;;20.30;94.20;;;;;;5010937;28;19918;-71
2023/09/10 03:19:08;;;;;;;;;;;20.30;94.30;;;;;;5005255;28;19913;-71
2023/09/10 03:21:35;;;;;;;;;;;20.20;94.30;;;;;;5010226;28;19945;-71
2023/09/10 03:24:01;;;;;;;;;;;20.20;94.30;;;;;;5005311;28;20016;-71
2023/09/10 03:26:27;;;;;;;;;;;20.20;94.30;;;;;;5010036;28;20510;-71
2023/09/10 03:28:52;;;;;;;;;;;20.20;94.30;;;;;;5005944;28;19994;-71
2023/09/10 03:31:17;;;;;;;;;;;20.20;94.30;;;;;;5008562;28;19939;-71
2023/09/10 03:33:43;;;;;;;;;;;20.20;94.40;;;;;;5007367;28;19913;-71
2023/09/10 03:36:11;;;;;;;;;;;20.20;94.60;;;;;;5007793;28;20309;-71
2023/09/10 03:38:37;;;;;;;;;;;20.10;94.40;;;;;;5007688;28;19921;-71
2023/09/10 03:41:02;;;;;;;;;;;20.10;94.30;;;;;;5006671;28;19921;-71
2023/09/10 03:43:28;;;;;;;;;;;20.10;94.40;;;;;;5008557;28;19941;-71
2023/09/10 03:45:53;;;;;;;;;;;20.10;94.40;;;;;;5020485;28;19940;-71
2023/09/10 03:48:19;;;;;;;;;;;20.10;94.40;;;;;;5006924;28;20397;-71
2023/09/10 03:50:45;;;;;;;;;;;20.10;94.40;;;;;;5004406;28;19918;-71
2023/09/10 03:53:10;;;;;;;;;;;20.10;94.40;;;;;;5008927;28;20458;-71
2023/09/10 03:55:36;;;;;;;;;;;20.00;94.40;;;;;;5005228;28;19920;-71
2023/09/10 03:58:01;;;;;;;;;;;20.00;94.40;;;;;;5007509;28;19920;-71
2023/09/10 04:00:27;;;;;;;;;;;20.00;94.30;;;;;;5004323;28;19996;-71
2023/09/10 04:02:53;;;;;;;;;;;20.00;94.40;;;;;;5009707;28;19956;-71
2023/09/10 04:05:18;;;;;;;;;;;20.00;94.50;;;;;;5004090;28;19914;-71
2023/09/10 04:07:44;;;;;;;;;;;20.00;94.50;;;;;;5008380;28;20008;-71
2023/09/10 04:10:09;;;;;;;;;;;20.00;94.50;;;;;;5002679;28;19931;-71
2023/09/10 04:12:35;;;;;;;;;;;20.00;94.40;;;;;;5009468;28;19917;-71
2023/09/10 04:15:01;;;;;;;;;;;20.00;94.50;;;;;;5004385;28;19937;-71
2023/09/10 04:17:28;;;;;;;;;;;19.90;94.50;;;;;;5009180;28;20428;-71
2023/09/10 04:19:54;;;;;;;;;;;19.90;94.50;;;;;;5004366;28;19917;-71
2023/09/10 04:22:19;;;;;;;;;;;19.90;94.50;;;;;;5008887;28;19967;-71
2023/09/10 04:24:45;;;;;;;;;;;19.90;94.40;;;;;;5004049;28;20417;-71
2023/09/10 04:27:10;;;;;;;;;;;19.90;94.50;;;;;;5008934;28;20747;-71
2023/09/10 04:29:36;;;;;;;;;;;19.90;94.50;;;;;;5007356;28;19941;-71
2023/09/10 04:32:02;;;;;;;;;;;19.80;94.40;;;;;;5008899;28;20004;-71
2023/09/10 04:34:27;;;;;;;;;;;19.80;94.50;;;;;;5010441;28;19909;-71
2023/09/10 04:36:53;;;;;;;;;;;19.80;94.50;;;;;;5009167;28;19917;-71
2023/09/10 04:39:19;;;;;;;;;;;19.80;94.50;;;;;;5002549;28;19913;-71
2023/09/10 04:41:44;;;;;;;;;;;19.80;94.50;;;;;;5007724;28;19914;-71
2023/09/10 04:44:10;;;;;;;;;;;19.80;94.50;;;;;;5004615;28;19913;-71
2023/09/10 04:46:35;;;;;;;;;;;19.80;94.60;;;;;;5009040;28;19913;-71
2023/09/10 04:49:01;;;;;;;;;;;19.70;94.50;;;;;;5003205;28;19922;-71
2023/09/10 04:51:26;;;;;;;;;;;19.70;94.90;;;;;;5008137;28;19917;-71
2023/09/10 04:53:52;;;;;;;;;;;19.70;94.50;;;;;;5004486;28;20189;-71
2023/09/10 04:56:17;;;;;;;;;;;19.70;94.50;;;;;;5007678;28;19917;-71
2023/09/10 04:58:43;;;;;;;;;;;19.70;94.50;;;;;;5006844;28;20008;-71
2023/09/10 05:01:09;;;;;;;;;;;19.70;94.50;;;;;;5006206;28;19920;-71
2023/09/10 05:03:34;;;;;;;;;;;19.70;94.50;;;;;;5005622;28;20499;-72
2023/09/10 05:06:01;;;;;;;;;;;19.60;94.50;;;;;;5005423;28;19913;-71
2023/09/10 05:08:27;;;;;;;;;;;19.70;94.60;;;;;;5006179;28;19918;-71
2023/09/10 05:10:52;;;;;;;;;;;19.60;94.60;;;;;;5003046;28;20379;-71
2023/09/10 05:13:18;;;;;;;;;;;19.60;94.60;;;;;;5007075;28;20024;-71
2023/09/10 05:15:48;;;;;;;;;;;19.60;94.60;;;;;;5004272;28;19920;-71
2023/09/10 05:18:13;;;;;;;;;;;19.60;94.60;;;;;;5007338;28;20056;-71
2023/09/10 05:20:39;;;;;;;;;;;19.60;94.60;;;;;;5003778;28;19992;-71
2023/09/10 05:23:04;;;;;;;;;;;19.60;94.60;;;;;;5007642;28;19909;-71
2023/09/10 05:25:30;;;;;;;;;;;19.60;94.60;;;;;;5003778;28;19921;-71
2023/09/10 05:27:56;;;;;;;;;;;19.60;94.60;;;;;;5006897;28;19920;-71
2023/09/10 05:30:22;;;;;;;;;;;19.60;94.50;;;;;;5002764;28;19914;-72
2023/09/10 05:32:47;;;;;;;;;;;19.60;94.50;;;;;;5008277;28;19968;-71
2023/09/10 05:35:13;;;;;;;;;;;19.60;94.60;;;;;;5002650;28;19928;-71
2023/09/10 05:37:38;;;;;;;;;;;19.60;94.60;;;;;;5006904;28;19964;-71
2023/09/10 05:40:04;;;;;;;;;;;19.60;94.60;;;;;;5002969;28;19924;-71
2023/09/10 05:42:30;;;;;;;;;;;19.60;94.60;;;;;;5007635;28;19917;-72
2023/09/10 05:44:55;;;;;;;;;;;19.60;94.90;;;;;;5002605;28;19913;-71
2023/09/10 05:47:22;;;;;;;;;;;19.60;94.60;;;;;;5007517;28;19910;-71
2023/09/10 05:49:48;;;;;;;;;;;19.50;94.60;;;;;;5006371;28;19913;-71
2023/09/10 05:52:13;;;;;;;;;;;19.60;94.60;;;;;;5007550;28;20364;-71
2023/09/10 05:54:40;;;;;;;;;;;19.60;94.60;;;;;;5002700;28;20013;-71
2023/09/10 05:57:05;;;;;;;;;;;19.60;94.50;;;;;;5008050;28;19909;-71
2023/09/10 05:59:31;;;;;;;;;;;19.50;94.60;;;;;;5002015;28;20385;-71
2023/09/10 06:01:56;;;;;;;;;;;19.50;94.50;;;;;;5007733;28;19940;-71
2023/09/10 06:04:22;;;;;;;;;;;19.50;94.50;;;;;;5003294;28;19941;-71
2023/09/10 06:06:47;;;;;;;;;;;19.50;94.60;;;;;;5007834;28;20283;-71
2023/09/10 06:09:13;;;;;;;;;;;19.50;94.60;;;;;;5001933;28;19917;-71
2023/09/10 06:11:38;;;;;;;;;;;19.60;94.60;;;;;;5007694;28;20036;-71
2023/09/10 06:14:04;;;;;;;;;;;19.60;94.60;;;;;;5002309;28;19956;-71
2023/09/10 06:16:29;;;;;;;;;;;19.60;94.60;;;;;;5011587;28;19920;-72
2023/09/10 06:18:55;;;;;;;;;;;19.60;94.70;;;;;;5006880;28;20509;-71
2023/09/10 06:21:20;;;;;;;;;;;19.50;94.50;;;;;;5010472;28;19913;-71
2023/09/10 06:23:46;;;;;;;;;;;19.60;94.50;;;;;;5007963;28;19913;-71
2023/09/10 06:26:12;;;;;;;;;;;19.60;94.50;;;;;;5009783;28;20358;-71
2023/09/10 06:28:38;;;;;;;;;;;19.50;94.40;;;;;;5008694;28;19917;-71
2023/09/10 06:31:05;;;;;;;;;;;19.50;94.30;;;;;;5008439;28;19964;-71
2023/09/10 06:33:31;;;;;;;;;;;19.50;94.60;;;;;;5009057;28;19909;-71
2023/09/10 06:35:56;;;;;;;;;;;19.60;94.40;;;;;;5020597;28;19920;-71
2023/09/10 06:38:22;;;;;;;;;;;19.60;94.30;;;;;;5009571;28;19921;-71
2023/09/10 06:40:48;;;;;;;;;;;19.60;94.30;;;;;;5004975;28;19945;-71
2023/09/10 06:43:14;;;;;;;;;;;19.60;94.30;;;;;;5010101;28;19914;-71
2023/09/10 06:45:41;;;;;;;;;;;19.60;94.30;;;;;;5005382;28;19936;-71
2023/09/10 06:48:06;;;;;;;;;;;19.60;94.30;;;;;;5010327;28;19925;-71
2023/09/10 06:50:32;;;;;;;;;;;19.60;94.30;;;;;;5004908;28;20432;-72
2023/09/10 06:52:57;;;;;;;;;;;19.60;94.30;;;;;;5010796;28;19920;-71
2023/09/10 06:55:23;;;;;;;;;;;19.60;94.30;;;;;;5004073;28;20289;-71
2023/09/10 06:57:49;;;;;;;;;;;19.60;94.20;;;;;;5009900;28;19917;-71
2023/09/10 07:00:15;;;;;;;;;;;19.60;94.20;;;;;;5003528;28;19913;-71
2023/09/10 07:02:40;;;;;;;;;;;19.60;94.20;;;;;;5010703;28;19920;-71
2023/09/10 07:05:07;;;;;;;;;;;19.60;94.20;;;;;;5003847;28;19940;-72
2023/09/10 07:07:32;;;;;;;;;;;19.70;94.20;;;;;;5009150;28;19955;-72
2023/09/10 07:09:58;;;;;;;;;;;19.70;94.20;;;;;;5003612;28;19913;-71
2023/09/10 07:12:24;;;;;;;;;;;19.70;94.10;;;;;;5010395;28;19918;-71
2023/09/10 07:14:49;;;;;;;;;;;19.70;94.20;;;;;;5003603;28;20370;-71
2023/09/10 07:17:15;;;;;;;;;;;19.70;94.00;;;;;;5009102;28;19913;-71
2023/09/10 07:19:41;;;;;;;;;;;19.70;94.10;;;;;;5003890;28;19941;-71
2023/09/10 07:22:06;;;;;;;;;;;19.70;94.10;;;;;;5010146;28;19923;-71
2023/09/10 07:24:32;;;;;;;;;;;19.70;94.10;;;;;;5002989;28;19913;-72
2023/09/10 07:26:58;;;;;;;;;;;19.80;94.10;;;;;;5009278;28;19963;-71
2023/09/10 07:29:24;;;;;;;;;;;19.80;94.00;;;;;;5002870;28;19959;-71
2023/09/10 07:31:50;;;;;;;;;;;19.80;94.00;;;;;;5010374;28;19957;-71
2023/09/10 07:34:18;;;;;;;;;;;19.80;94.00;;;;;;5002948;28;20359;-72
2023/09/10 07:36:44;;;;;;;;;;;19.90;93.90;;;;;;5010486;28;19913;-71
2023/09/10 07:39:09;;;;;;;;;;;19.90;93.90;;;;;;5002424;28;20398;-71
2023/09/10 07:41:35;;;;;;;;;;;19.90;93.90;;;;;;5010322;28;19914;-71
2023/09/10 07:44:02;;;;;;;;;;;19.90;93.80;;;;;;5004555;28;19913;-71
2023/09/10 07:46:28;;;;;;;;;;;19.90;93.80;;;;;;5010148;28;19915;-71
2023/09/10 07:48:53;;;;;;;;;;;19.90;93.70;;;;;;5005173;28;20437;-71
2023/09/10 07:51:19;;;;;;;;;;;20.00;93.70;;;;;;5008738;28;19952;-71
2023/09/10 07:53:44;;;;;;;;;;;20.00;93.70;;;;;;5006284;28;20557;-71
2023/09/10 07:56:10;;;;;;;;;;;20.00;93.60;;;;;;5006431;28;20036;-71
2023/09/10 07:58:36;;;;;;;;;;;20.00;93.50;;;;;;5006978;28;19920;-71
2023/09/10 08:01:01;;;;;;;;;;;20.10;93.50;;;;;;5005320;28;19913;-71
2023/09/10 08:03:27;;;;;;;;;;;20.10;93.40;;;;;;5008176;28;20027;-71
2023/09/10 08:05:52;;;;;;;;;;;20.20;93.40;;;;;;5004254;28;20577;-71
2023/09/10 08:08:18;;;;;;;;;;;20.20;93.30;;;;;;5006747;28;19945;-71
2023/09/10 08:10:44;;;;;;;;;;;20.20;93.30;;;;;;5003614;28;20260;-71
2023/09/10 08:13:12;;;;;;;;;;;20.30;93.40;;;;;;5005068;28;19909;-71
2023/09/10 08:15:38;;;;;;;;;;;20.30;93.20;;;;;;5006346;28;20044;-71
2023/09/10 08:18:08;;;;;;;;;;;20.30;93.10;;;;;;5009361;28;20004;-71
2023/09/10 08:20:34;;;;;;;;;;;20.40;93.10;;;;;;5001487;28;19913;-71
2023/09/10 08:22:59;;;;;;;;;;;20.40;93.00;;;;;;5008932;28;19920;-71
2023/09/10 08:25:25;;;;;;;;;;;20.50;93.10;;;;;;5002576;28;19932;-71
2023/09/10 08:27:50;;;;;;;;;;;20.50;93.00;;;;;;5009327;28;19913;-71
2023/09/10 08:30:16;;;;;;;;;;;20.50;93.00;;;;;;5006965;28;20518;-71
2023/09/10 08:32:45;;;;;;;;;;;20.60;92.90;;;;;;5009421;28;19960;-71
2023/09/10 08:35:11;;;;;;;;;;;20.60;92.90;;;;;;5001686;28;20000;-72
2023/09/10 08:37:36;;;;;;;;;;;20.70;92.90;;;;;;5007924;28;20004;-71
2023/09/10 08:40:02;;;;;;;;;;;20.70;92.70;;;;;;5001728;28;19909;-71
2023/09/10 08:42:34;;;;;;;;;;;20.80;92.80;;;;;;5008157;28;19920;-71
2023/09/10 08:45:00;;;;;;;;;;;20.80;93.00;;;;;;5001615;28;19921;-71
2023/09/10 08:47:29;;;;;;;;;;;20.90;92.70;;;;;;5008196;28;19965;-71
2023/09/10 08:49:58;;;;;;;;;;;20.90;92.60;;;;;;5003788;28;19913;-71
2023/09/10 08:52:24;;;;;;;;;;;21.00;92.60;;;;;;5007640;28;20076;-71
2023/09/10 08:54:49;;;;;;;;;;;21.00;92.50;;;;;;5000794;28;20317;-71
2023/09/10 08:57:15;;;;;;;;;;;21.10;92.50;;;;;;5008197;28;19932;-71
2023/09/10 08:59:41;;;;;;;;;;;21.10;92.40;;;;;;5001130;28;19909;-71
2023/09/10 09:02:09;;;;;;;;;;;21.20;92.40;;;;;;5007777;28;19919;-71
2023/09/10 09:04:34;;;;;;;;;;;21.20;92.40;;;;;;5002359;28;19913;-71
2023/09/10 09:07:01;;;;;;;;;;;21.30;92.30;;;;;;5008593;28;19948;-71
2023/09/10 09:09:30;;;;;;;;;;;21.30;92.30;;;;;;5000131;28;19949;-71
2023/09/10 09:11:55;;;;;;;;;;;21.40;92.20;;;;;;5007938;28;20342;-71
2023/09/10 09:14:21;;;;;;;;;;;21.40;92.20;;;;;;5002414;28;19916;-71
2023/09/10 09:16:47;;;;;;;;;;;21.40;92.10;;;;;;5008096;28;19913;-71
2023/09/10 09:19:14;;;;;;;;;;;21.40;92.10;;;;;;5003563;28;19916;-71
2023/09/10 09:21:42;;;;;;;;;;;21.50;92.10;;;;;;5007940;28;19976;-71
2023/09/10 09:24:10;;;;;;;;;;;21.50;92.10;;;;;;5000534;28;20371;-71
2023/09/10 09:26:36;;;;;;;;;;;21.60;92.10;;;;;;5007949;28;19921;-71
2023/09/10 09:29:02;;;;;;;;;;;21.60;92.00;;;;;;5001480;28;19914;-71
2023/09/10 09:31:28;;;;;;;;;;;21.70;92.00;;;;;;5006173;28;20378;-71
2023/09/10 09:33:53;;;;;;;;;;;21.70;92.00;;;;;;5003359;28;19913;-71
2023/09/10 09:36:19;;;;;;;;;;;21.70;92.00;;;;;;5007053;28;19920;-71
2023/09/10 09:38:45;;;;;;;;;;;21.70;92.00;;;;;;5003061;28;20287;-72
2023/09/10 09:41:11;;;;;;;;;;;21.80;92.00;;;;;;5003827;28;19914;-71
2023/09/10 09:43:36;;;;;;;;;;;21.90;92.20;;;;;;5005613;28;19967;-71
2023/09/10 09:46:02;;;;;;;;;;;21.90;92.00;;;;;;5003347;28;20138;-71
2023/09/10 09:48:28;;;;;;;;;;;21.90;91.90;;;;;;5004912;28;19929;-71
2023/09/10 09:50:54;;;;;;;;;;;22.00;92.00;;;;;;5001793;28;19917;-71
2023/09/10 09:53:22;;;;;;;;;;;22.00;92.10;;;;;;5006240;28;20371;-72
2023/09/10 09:55:48;;;;;;;;;;;22.10;92.00;;;;;;5006749;28;19916;-71
2023/09/10 09:58:17;;;;;;;;;;;22.10;92.00;;;;;;5007060;28;19917;-71
2023/09/10 10:00:43;;;;;;;;;;;22.20;92.20;;;;;;5003854;28;19910;-71
2023/09/10 10:03:10;;;;;;;;;;;22.20;92.00;;;;;;5006903;28;20662;-71
2023/09/10 10:05:36;;;;;;;;;;;22.30;92.00;;;;;;5001502;28;19981;-71
2023/09/10 10:08:03;;;;;;;;;;;22.30;91.90;;;;;;5007035;28;20472;-72
2023/09/10 10:10:28;;;;;;;;;;;22.30;91.90;;;;;;5005148;28;19936;-71
2023/09/10 10:12:54;;;;;;;;;;;22.40;91.70;;;;;;5007574;28;19913;-71
2023/09/10 10:15:21;;;;;;;;;;;22.50;91.80;;;;;;4999907;28;19910;-71
2023/09/10 10:17:47;;;;;;;;;;;22.50;91.60;;;;;;5006803;28;20275;-71
2023/09/10 10:20:13;;;;;;;;;;;22.60;91.60;;;;;;4999913;28;20285;-71
2023/09/10 10:22:39;;;;;;;;;;;22.60;91.70;;;;;;5007168;28;19914;-71
2023/09/10 10:25:05;;;;;;;;;;;22.70;91.60;;;;;;5000248;28;20488;-71
2023/09/10 10:27:35;;;;;;;;;;;22.70;91.50;;;;;;5007163;28;20004;-71
2023/09/10 10:30:01;;;;;;;;;;;22.80;91.70;;;;;;5000062;28;20432;-71
2023/09/10 10:32:46;;;;;;;;;;;22.80;91.70;;;;;;5006935;28;19917;-71
2023/09/10 10:35:12;;;;;;;;;;;22.90;91.80;;;;;;4999230;28;19923;-71
2023/09/10 10:37:51;;;;;;;;;;;22.90;91.70;;;;;;5006920;28;19914;-71
2023/09/10 10:40:27;;;;;;;;;;;23.10;91.80;;;;;;4999220;28;20560;-71
2023/09/10 10:42:53;;;;;;;;;;;23.20;91.90;;;;;;5007178;28;19920;-71
2023/09/10 10:45:19;;;;;;;;;;;23.20;92.00;;;;;;5005284;28;20366;-71
2023/09/10 10:47:45;;;;;;;;;;;23.30;92.00;;;;;;5007229;28;19971;-71
2023/09/10 10:50:11;;;;;;;;;;;23.40;92.00;;;;;;5010734;28;19922;-71
2023/09/10 10:52:46;;;;;;;;;;;23.40;92.00;;;;;;5006644;28;19939;-71
2023/09/10 10:55:12;;;;;;;;;;;23.50;92.10;;;;;;5010348;28;19948;-71
2023/09/10 10:57:37;;;;;;;;;;;23.60;92.10;;;;;;4997921;28;20000;-71
2023/09/10 11:00:05;;;;;;;;;;;23.70;92.30;;;;;;5005167;28;19917;-71
2023/09/10 11:02:30;;;;;;;;;;;23.80;92.20;;;;;;5009353;28;20266;-71
2023/09/10 11:04:57;;;;;;;;;;;23.90;92.20;;;;;;5007519;28;19916;-71
2023/09/10 11:07:23;;;;;;;;;;;24.00;92.10;;;;;;5010014;28;19917;-71
2023/09/10 11:09:49;;;;;;;;;;;24.10;92.30;;;;;;5007199;28;19928;-71
2023/09/10 11:12:14;;;;;;;;;;;24.10;92.30;;;;;;5010543;28;19917;-71
2023/09/10 11:14:58;;;;;;;;;;;24.30;92.20;;;;;;5014750;28;19921;-71
2023/09/10 11:17:25;;;;;;;;;;;24.30;92.40;;;;;;5010389;28;19921;-71
2023/09/10 11:19:51;;;;;;;;;;;24.50;92.10;;;;;;5007166;28;19913;-71
2023/09/10 11:22:16;;;;;;;;;;;24.60;92.20;;;;;;5010221;28;20373;-71
2023/09/10 11:24:42;;;;;;;;;;;24.70;92.20;;;;;;5007235;28;20396;-71
2023/09/10 11:27:18;;;;;;;;;;;24.70;92.20;;;;;;5010698;28;19910;-71
2023/09/10 11:29:44;;;;;;;;;;;24.90;92.20;;;;;;5003899;28;20290;-71
2023/09/10 11:32:16;;;;;;;;;;;25.00;92.20;;;;;;5010028;28;19918;-71
2023/09/10 11:34:42;;;;;;;;;;;25.00;92.20;;;;;;5006260;28;19914;-71
2023/09/10 11:37:08;;;;;;;;;;;25.10;92.20;;;;;;5007540;28;19963;-71
2023/09/10 11:39:34;;;;;;;;;;;25.30;92.30;;;;;;5003023;28;20346;-72
2023/09/10 11:42:01;;;;;;;;;;;25.30;92.20;;;;;;5000199;28;19909;-72
2023/09/10 11:44:27;;;;;;;;;;;25.40;92.30;;;;;;5002244;28;19913;-71
2023/09/10 11:46:52;;;;;;;;;;;25.50;92.20;;;;;;5003883;28;19959;-71
2023/09/10 11:49:18;;;;;;;;;;;25.60;92.00;;;;;;5001301;28;19922;-71
2023/09/10 11:51:46;;;;;;;;;;;25.60;92.00;;;;;;5002386;28;19925;-71
2023/09/10 11:54:16;;;;;;;;;;;25.70;92.10;;;;;;5006930;28;19940;-71
2023/09/10 11:56:48;;;;;;;;;;;25.80;92.20;;;;;;5001308;28;19913;-71
2023/09/10 11:59:14;;;;;;;;;;;25.90;92.20;;;;;;5008229;28;20702;-71
2023/09/10 12:01:40;;;;;;;;;;;25.90;92.20;;;;;;5009816;28;19913;-71
2023/09/10 12:04:05;;;;;;;;;;;26.00;92.30;;;;;;5006470;28;20466;-71
2023/09/10 12:06:31;;;;;;;;;;;26.10;92.30;;;;;;5006355;28;19913;-72
2023/09/10 12:08:56;;;;;;;;;;;26.20;92.30;;;;;;5000670;28;19914;-71
2023/09/10 12:11:23;;;;;;;;;;;26.20;92.20;;;;;;5000664;28;19921;-71
2023/09/10 12:13:49;;;;;;;;;;;26.30;92.20;;;;;;5001206;28;20012;-71
2023/09/10 12:16:15;;;;;;;;;;;26.40;92.20;;;;;;5001887;28;19993;-71
2023/09/10 12:18:40;;;;;;;;;;;26.40;92.10;;;;;;5002645;28;19940;-71
2023/09/10 12:21:14;;;;;;;;;;;26.50;92.30;;;;;;4999539;28;19975;-71
2023/09/10 12:23:40;;;;;;;;;;;26.60;92.20;;;;;;4999896;28;19959;-71
2023/09/10 12:26:07;;;;;;;;;;;26.60;92.60;;;;;;5001048;28;19945;-71
2023/09/10 12:28:33;;;;;;;;;;;26.60;92.20;;;;;;5001754;28;20337;-71
2023/09/10 12:30:59;;;;;;;;;;;26.70;92.30;;;;;;5001004;28;19926;-70
2023/09/10 12:33:24;;;;;;;;;;;26.70;92.20;;;;;;5000827;28;20271;-71
2023/09/10 12:35:51;;;;;;;;;;;26.80;92.20;;;;;;5000921;28;19919;-71
2023/09/10 12:38:16;;;;;;;;;;;26.90;92.20;;;;;;4999618;28;19949;-71
2023/09/10 12:40:42;;;;;;;;;;;26.90;92.20;;;;;;5000565;28;19945;-71
2023/09/10 12:43:08;;;;;;;;;;;26.90;92.10;;;;;;5002181;28;20682;-71
2023/09/10 12:45:34;;;;;;;;;;;27.00;92.20;;;;;;5000029;28;21263;-71
2023/09/10 12:48:00;;;;;;;;;;;27.10;92.20;;;;;;5000692;28;19925;-71
2023/09/10 12:50:25;;;;;;;;;;;27.10;92.20;;;;;;5001876;28;20294;-71
2023/09/10 12:52:53;;;;;;;;;;;27.20;92.10;;;;;;5004007;28;19922;-71
2023/09/10 12:55:20;;;;;;;;;;;27.20;92.20;;;;;;5008355;28;19913;-71
2023/09/10 12:57:53;;;;;;;;;;;27.20;91.90;;;;;;5008953;28;20477;-71
2023/09/10 13:00:19;;;;;;;;;;;27.30;92.10;;;;;;5008336;28;20028;-70
2023/09/10 13:02:46;;;;;;;;;;;27.30;92.10;;;;;;5008654;28;19991;-71
2023/09/10 13:05:11;;;;;;;;;;;27.40;92.10;;;;;;5008820;28;20598;-71
2023/09/10 13:07:37;;;;;;;;;;;27.40;92.10;;;;;;5008139;28;19913;-71
2023/09/10 13:10:03;;;;;;;;;;;27.40;92.00;;;;;;5008558;28;19918;-71
2023/09/10 13:12:28;;;;;;;;;;;27.50;92.00;;;;;;5007985;28;20027;-71
2023/09/10 13:14:54;;;;;;;;;;;27.50;91.80;;;;;;5007385;28;19992;-71
2023/09/10 13:17:20;;;;;;;;;;;27.60;91.80;;;;;;5005809;28;20470;-71
2023/09/10 13:19:45;;;;;;;;;;;27.60;91.90;;;;;;5007446;28;20098;-71
2023/09/10 13:22:11;;;;;;;;;;;27.60;91.90;;;;;;5008700;28;20645;-71
2023/09/10 13:24:36;;;;;;;;;;;27.70;91.80;;;;;;5006748;28;19913;-71
2023/09/10 13:27:02;;;;;;;;;;;27.70;91.70;;;;;;5008505;28;20017;-71
2023/09/10 13:29:28;;;;;;;;;;;27.80;91.80;;;;;;5007811;28;19932;-71
2023/09/10 13:31:53;;;;;;;;;;;27.80;91.60;;;;;;5008038;28;19925;-71
2023/09/10 13:34:19;;;;;;;;;;;27.80;91.50;;;;;;5008136;28;19913;-71
2023/09/10 13:36:44;;;;;;;;;;;27.80;91.40;;;;;;5008030;28;19913;-71
2023/09/10 13:39:10;;;;;;;;;;;27.90;91.20;;;;;;5007448;28;19913;-71
2023/09/10 13:41:35;;;;;;;;;;;27.90;91.30;;;;;;5007609;28;19929;-71
2023/09/10 13:44:02;;;;;;;;;;;28.00;91.30;;;;;;5007996;28;20370;-71
2023/09/10 13:46:28;;;;;;;;;;;28.00;91.20;;;;;;5007868;28;19988;-71
2023/09/10 13:48:53;;;;;;;;;;;28.00;91.10;;;;;;5007967;28;20314;-71
2023/09/10 13:51:19;;;;;;;;;;;28.10;91.10;;;;;;5007019;28;19918;-71
2023/09/10 13:53:44;;;;;;;;;;;28.10;91.10;;;;;;5007509;28;20574;-71
2023/09/10 13:56:10;;;;;;;;;;;28.20;91.00;;;;;;5007853;28;19985;-71
2023/09/10 13:58:36;;;;;;;;;;;28.20;90.90;;;;;;5005713;28;19936;-71
2023/09/10 14:01:03;;;;;;;;;;;28.20;90.90;;;;;;5004495;28;19918;-71
2023/09/10 14:03:29;;;;;;;;;;;28.30;90.90;;;;;;5003777;28;19925;-70
2023/09/10 14:05:55;;;;;;;;;;;28.30;91.00;;;;;;4981253;28;19913;-71
2023/09/10 14:08:20;;;;;;;;;;;28.30;91.00;;;;;;5001068;28;19913;-71
2023/09/10 14:10:46;;;;;;;;;;;28.40;90.90;;;;;;5000397;28;19910;-71